sensor_id;sensor_type;location;lat;lon;timestamp;temperature;humidity
34460;DHT22;20704;51.260;22.558;2022-08-01T00:00:42;18.00;99.90
34460;DHT22;20704;51.260;22.558;2022-08-01T00:03:08;18.00;99.90
34460;DHT22;20704;51.260;22.558;2022-08-01T00:05:34;18.00;99.90
34460;DHT22;20704;51.260;22.558;2022-08-01T00:08:00;17.90;99.90
34460;DHT22;20704;51.260;22.558;2022-08-01T00:10:27;17.90;99.90
34460;DHT22;20704;51.260;22.558;2022-08-01T00:12:53;17.90;99.90
34460;DHT22;20704;51.260;22.558;2022-08-01T00:15:19;17.90;99.90
34460;DHT22;20704;51.260;22.558;2022-08-01T00:17:45;17.90;99.90
34460;DHT22;20704;51.260;22.558;2022-08-01T00:20:12;17.80;99.90
34460;DHT22;20704;51.260;22.558;2022-08-01T00:22:39;17.80;99.90
34460;DHT22;20704;51.260;22.558;2022-08-01T00:25:06;17.70;99.90
34460;DHT22;20704;51.260;22.558;2022-08-01T00:27:32;17.70;99.90
34460;DHT22;20704;51.260;22.558;2022-08-01T00:29:58;17.70;99.90
34460;DHT22;20704;51.260;22.558;2022-08-01T00:32:24;17.70;99.90
34460;DHT22;20704;51.260;22.558;2022-08-01T00:34:50;17.70;99.90
34460;DHT22;20704;51.260;22.558;2022-08-01T00:37:17;17.60;99.90
34460;DHT22;20704;51.260;22.558;2022-08-01T00:39:43;17.50;99.90
34460;DHT22;20704;51.260;22.558;2022-08-01T00:42:10;17.60;99.90
34460;DHT22;20704;51.260;22.558;2022-08-01T00:44:37;17.50;99.90
34460;DHT22;20704;51.260;22.558;2022-08-01T00:47:03;17.50;99.90
34460;DHT22;20704;51.260;22.558;2022-08-01T00:49:30;17.40;99.90
34460;DHT22;20704;51.260;22.558;2022-08-01T00:51:56;17.40;99.90
34460;DHT22;20704;51.260;22.558;2022-08-01T00:54:25;17.40;99.90
34460;DHT22;20704;51.260;22.558;2022-08-01T00:56:51;17.40;99.90
34460;DHT22;20704;51.260;22.558;2022-08-01T00:59:18;17.30;99.90
34460;DHT22;20704;51.260;22.558;2022-08-01T01:01:44;17.30;99.90
34460;DHT22;20704;51.260;22.558;2022-08-01T01:04:10;17.30;99.90
34460;DHT22;20704;51.260;22.558;2022-08-01T01:09:42;17.20;99.90
34460;DHT22;20704;51.260;22.558;2022-08-01T01:12:44;17.20;99.90
34460;DHT22;20704;51.260;22.558;2022-08-01T01:20:24;17.20;99.90
34460;DHT22;20704;51.260;22.558;2022-08-01T01:30:53;17.10;99.90
34460;DHT22;20704;51.260;22.558;2022-08-01T01:33:21;17.10;99.90
34460;DHT22;20704;51.260;22.558;2022-08-01T01:35:52;17.20;99.90
34460;DHT22;20704;51.260;22.558;2022-08-01T01:38:25;17.10;99.90
34460;DHT22;20704;51.260;22.558;2022-08-01T01:40:53;17.20;99.90
34460;DHT22;20704;51.260;22.558;2022-08-01T01:43:21;17.20;99.90
34460;DHT22;20704;51.260;22.558;2022-08-01T01:45:49;17.20;99.90
34460;DHT22;20704;51.260;22.558;2022-08-01T01:48:20;17.20;99.90
34460;DHT22;20704;51.260;22.558;2022-08-01T01:50:47;17.20;99.90
34460;DHT22;20704;51.260;22.558;2022-08-01T01:53:16;17.20;99.90
34460;DHT22;20704;51.260;22.558;2022-08-01T01:55:45;17.20;99.90
34460;DHT22;20704;51.260;22.558;2022-08-01T01:58:13;17.20;99.90
34460;DHT22;20704;51.260;22.558;2022-08-01T02:00:42;17.10;99.90
34460;DHT22;20704;51.260;22.558;2022-08-01T02:03:09;17.20;99.90
34460;DHT22;20704;51.260;22.558;2022-08-01T02:05:36;17.20;99.90
34460;DHT22;20704;51.260;22.558;2022-08-01T02:08:04;17.20;99.90
34460;DHT22;20704;51.260;22.558;2022-08-01T02:10:32;17.20;99.90
34460;DHT22;20704;51.260;22.558;2022-08-01T02:12:59;17.20;99.90
34460;DHT22;20704;51.260;22.558;2022-08-01T02:15:27;17.20;99.90
34460;DHT22;20704;51.260;22.558;2022-08-01T02:17:54;17.20;99.90
34460;DHT22;20704;51.260;22.558;2022-08-01T02:20:22;17.20;99.90
34460;DHT22;20704;51.260;22.558;2022-08-01T02:23:00;17.20;99.90
34460;DHT22;20704;51.260;22.558;2022-08-01T02:25:40;17.30;99.90
34460;DHT22;20704;51.260;22.558;2022-08-01T02:28:10;17.10;99.90
34460;DHT22;20704;51.260;22.558;2022-08-01T02:30:41;17.20;99.90
34460;DHT22;20704;51.260;22.558;2022-08-01T02:33:15;17.20;99.90
34460;DHT22;20704;51.260;22.558;2022-08-01T02:35:44;17.10;99.90
34460;DHT22;20704;51.260;22.558;2022-08-01T02:38:13;17.10;99.90
34460;DHT22;20704;51.260;22.558;2022-08-01T02:40:42;17.10;99.90
34460;DHT22;20704;51.260;22.558;2022-08-01T02:43:09;17.10;99.90
34460;DHT22;20704;51.260;22.558;2022-08-01T02:45:41;17.10;99.90
34460;DHT22;20704;51.260;22.558;2022-08-01T02:48:11;17.00;99.90
34460;DHT22;20704;51.260;22.558;2022-08-01T02:50:40;17.10;99.90
34460;DHT22;20704;51.260;22.558;2022-08-01T02:53:08;17.10;99.90
34460;DHT22;20704;51.260;22.558;2022-08-01T02:55:37;17.00;99.90
34460;DHT22;20704;51.260;22.558;2022-08-01T02:58:04;17.00;99.90
34460;DHT22;20704;51.260;22.558;2022-08-01T03:00:33;17.00;99.90
34460;DHT22;20704;51.260;22.558;2022-08-01T03:03:00;17.00;99.90
34460;DHT22;20704;51.260;22.558;2022-08-01T03:05:27;17.00;99.90
34460;DHT22;20704;51.260;22.558;2022-08-01T03:07:55;16.90;99.90
34460;DHT22;20704;51.260;22.558;2022-08-01T03:10:21;16.90;99.90
34460;DHT22;20704;51.260;22.558;2022-08-01T03:12:50;16.90;99.90
34460;DHT22;20704;51.260;22.558;2022-08-01T03:15:17;16.90;99.90
34460;DHT22;20704;51.260;22.558;2022-08-01T03:17:44;16.90;99.90
34460;DHT22;20704;51.260;22.558;2022-08-01T03:20:14;16.90;99.90
34460;DHT22;20704;51.260;22.558;2022-08-01T03:22:42;16.90;99.90
34460;DHT22;20704;51.260;22.558;2022-08-01T03:25:10;16.90;99.90
34460;DHT22;20704;51.260;22.558;2022-08-01T03:27:40;16.90;99.90
34460;DHT22;20704;51.260;22.558;2022-08-01T03:30:07;16.80;99.90
34460;DHT22;20704;51.260;22.558;2022-08-01T03:32:34;16.80;99.90
34460;DHT22;20704;51.260;22.558;2022-08-01T03:35:00;16.80;99.90
34460;DHT22;20704;51.260;22.558;2022-08-01T03:37:28;16.90;99.90
34460;DHT22;20704;51.260;22.558;2022-08-01T03:40:23;16.90;99.90
34460;DHT22;20704;51.260;22.558;2022-08-01T03:42:54;16.90;99.90
34460;DHT22;20704;51.260;22.558;2022-08-01T03:45:26;16.90;99.90
34460;DHT22;20704;51.260;22.558;2022-08-01T03:47:59;16.80;99.90
34460;DHT22;20704;51.260;22.558;2022-08-01T03:50:27;16.80;99.90
34460;DHT22;20704;51.260;22.558;2022-08-01T03:52:56;16.90;99.90
34460;DHT22;20704;51.260;22.558;2022-08-01T03:55:24;16.90;99.90
34460;DHT22;20704;51.260;22.558;2022-08-01T03:57:51;16.80;99.90
34460;DHT22;20704;51.260;22.558;2022-08-01T04:00:17;16.90;99.90
34460;DHT22;20704;51.260;22.558;2022-08-01T04:02:47;16.90;99.90
34460;DHT22;20704;51.260;22.558;2022-08-01T04:05:17;16.80;99.90
34460;DHT22;20704;51.260;22.558;2022-08-01T04:07:48;16.80;99.90
34460;DHT22;20704;51.260;22.558;2022-08-01T04:10:24;16.70;99.90
34460;DHT22;20704;51.260;22.558;2022-08-01T04:12:51;16.80;99.90
34460;DHT22;20704;51.260;22.558;2022-08-01T04:15:17;16.80;99.90
34460;DHT22;20704;51.260;22.558;2022-08-01T04:17:43;16.80;99.90
34460;DHT22;20704;51.260;22.558;2022-08-01T04:20:10;16.80;99.90
34460;DHT22;20704;51.260;22.558;2022-08-01T04:22:36;16.80;99.90
34460;DHT22;20704;51.260;22.558;2022-08-01T04:25:07;16.80;99.90
34460;DHT22;20704;51.260;22.558;2022-08-01T04:27:37;16.80;99.90
34460;DHT22;20704;51.260;22.558;2022-08-01T04:30:04;16.80;99.90
34460;DHT22;20704;51.260;22.558;2022-08-01T04:32:33;16.80;99.90
34460;DHT22;20704;51.260;22.558;2022-08-01T04:35:05;16.90;99.90
34460;DHT22;20704;51.260;22.558;2022-08-01T04:37:32;16.90;99.90
34460;DHT22;20704;51.260;22.558;2022-08-01T04:40:00;16.90;99.90
34460;DHT22;20704;51.260;22.558;2022-08-01T04:42:27;16.90;99.90
34460;DHT22;20704;51.260;22.558;2022-08-01T04:44:53;17.00;99.90
34460;DHT22;20704;51.260;22.558;2022-08-01T04:47:19;17.00;99.90
34460;DHT22;20704;51.260;22.558;2022-08-01T04:49:46;17.00;99.90
34460;DHT22;20704;51.260;22.558;2022-08-01T04:52:12;16.90;99.90
34460;DHT22;20704;51.260;22.558;2022-08-01T04:54:38;16.90;99.90
34460;DHT22;20704;51.260;22.558;2022-08-01T04:57:05;17.00;99.90
34460;DHT22;20704;51.260;22.558;2022-08-01T04:59:37;17.00;99.90
34460;DHT22;20704;51.260;22.558;2022-08-01T05:02:15;16.90;99.90
34460;DHT22;20704;51.260;22.558;2022-08-01T05:04:42;16.90;99.90
34460;DHT22;20704;51.260;22.558;2022-08-01T05:07:09;16.90;99.90
34460;DHT22;20704;51.260;22.558;2022-08-01T05:09:35;17.00;99.90
34460;DHT22;20704;51.260;22.558;2022-08-01T05:12:03;17.00;99.90
34460;DHT22;20704;51.260;22.558;2022-08-01T05:14:29;16.90;99.90
34460;DHT22;20704;51.260;22.558;2022-08-01T05:16:59;16.90;99.90
34460;DHT22;20704;51.260;22.558;2022-08-01T05:19:25;16.90;99.90
34460;DHT22;20704;51.260;22.558;2022-08-01T05:21:52;16.90;99.90
34460;DHT22;20704;51.260;22.558;2022-08-01T05:24:18;16.90;99.90
34460;DHT22;20704;51.260;22.558;2022-08-01T05:26:44;17.00;99.90
34460;DHT22;20704;51.260;22.558;2022-08-01T05:29:10;17.00;99.90
34460;DHT22;20704;51.260;22.558;2022-08-01T05:31:36;17.00;99.90
34460;DHT22;20704;51.260;22.558;2022-08-01T05:34:02;17.00;99.90
34460;DHT22;20704;51.260;22.558;2022-08-01T05:36:29;17.10;99.90
34460;DHT22;20704;51.260;22.558;2022-08-01T05:38:55;17.10;99.90
34460;DHT22;20704;51.260;22.558;2022-08-01T05:41:21;17.10;99.90
34460;DHT22;20704;51.260;22.558;2022-08-01T05:43:47;17.20;99.90
34460;DHT22;20704;51.260;22.558;2022-08-01T05:46:13;17.20;99.90
34460;DHT22;20704;51.260;22.558;2022-08-01T05:48:39;17.20;99.90
34460;DHT22;20704;51.260;22.558;2022-08-01T05:51:05;17.20;99.90
34460;DHT22;20704;51.260;22.558;2022-08-01T05:53:31;17.30;99.90
34460;DHT22;20704;51.260;22.558;2022-08-01T05:56:00;17.30;99.90
34460;DHT22;20704;51.260;22.558;2022-08-01T05:58:27;17.30;99.90
34460;DHT22;20704;51.260;22.558;2022-08-01T06:00:53;17.40;99.90
34460;DHT22;20704;51.260;22.558;2022-08-01T06:03:19;17.40;99.90
34460;DHT22;20704;51.260;22.558;2022-08-01T06:05:45;17.40;99.90
34460;DHT22;20704;51.260;22.558;2022-08-01T06:08:12;17.40;99.90
34460;DHT22;20704;51.260;22.558;2022-08-01T06:10:38;17.40;99.90
34460;DHT22;20704;51.260;22.558;2022-08-01T06:13:04;17.50;99.90
34460;DHT22;20704;51.260;22.558;2022-08-01T06:15:32;17.50;99.90
34460;DHT22;20704;51.260;22.558;2022-08-01T06:17:58;17.60;99.90
34460;DHT22;20704;51.260;22.558;2022-08-01T06:20:24;17.60;99.90
34460;DHT22;20704;51.260;22.558;2022-08-01T06:22:50;17.60;99.90
34460;DHT22;20704;51.260;22.558;2022-08-01T06:25:20;17.70;99.90
34460;DHT22;20704;51.260;22.558;2022-08-01T06:27:46;17.70;99.90
34460;DHT22;20704;51.260;22.558;2022-08-01T06:30:12;17.70;99.90
34460;DHT22;20704;51.260;22.558;2022-08-01T06:32:38;17.70;99.90
34460;DHT22;20704;51.260;22.558;2022-08-01T06:35:04;17.70;99.90
34460;DHT22;20704;51.260;22.558;2022-08-01T06:37:31;17.70;99.90
34460;DHT22;20704;51.260;22.558;2022-08-01T06:40:04;17.80;99.90
34460;DHT22;20704;51.260;22.558;2022-08-01T06:42:31;17.80;99.90
34460;DHT22;20704;51.260;22.558;2022-08-01T06:45:08;17.70;99.90
34460;DHT22;20704;51.260;22.558;2022-08-01T06:47:34;17.80;99.90
34460;DHT22;20704;51.260;22.558;2022-08-01T06:50:00;17.80;99.90
34460;DHT22;20704;51.260;22.558;2022-08-01T06:52:26;17.90;99.90
34460;DHT22;20704;51.260;22.558;2022-08-01T06:54:52;18.00;99.90
34460;DHT22;20704;51.260;22.558;2022-08-01T06:57:18;18.10;99.90
34460;DHT22;20704;51.260;22.558;2022-08-01T06:59:44;18.30;99.90
34460;DHT22;20704;51.260;22.558;2022-08-01T07:02:10;18.40;99.90
34460;DHT22;20704;51.260;22.558;2022-08-01T07:04:36;18.30;99.90
34460;DHT22;20704;51.260;22.558;2022-08-01T07:07:04;18.30;99.90
34460;DHT22;20704;51.260;22.558;2022-08-01T07:09:30;18.30;99.90
34460;DHT22;20704;51.260;22.558;2022-08-01T07:11:56;18.30;99.90
34460;DHT22;20704;51.260;22.558;2022-08-01T07:14:23;18.40;99.90
34460;DHT22;20704;51.260;22.558;2022-08-01T07:16:50;18.40;99.90
34460;DHT22;20704;51.260;22.558;2022-08-01T07:19:16;18.30;99.90
34460;DHT22;20704;51.260;22.558;2022-08-01T07:21:43;18.30;99.90
34460;DHT22;20704;51.260;22.558;2022-08-01T07:24:11;18.40;99.90
34460;DHT22;20704;51.260;22.558;2022-08-01T07:26:39;18.40;99.90
34460;DHT22;20704;51.260;22.558;2022-08-01T07:29:05;18.50;99.90
34460;DHT22;20704;51.260;22.558;2022-08-01T07:31:31;18.70;99.90
34460;DHT22;20704;51.260;22.558;2022-08-01T07:33:57;18.80;99.90
34460;DHT22;20704;51.260;22.558;2022-08-01T07:36:23;19.00;99.90
34460;DHT22;20704;51.260;22.558;2022-08-01T07:38:49;19.10;99.90
34460;DHT22;20704;51.260;22.558;2022-08-01T07:41:15;19.30;99.90
34460;DHT22;20704;51.260;22.558;2022-08-01T07:43:41;19.50;99.90
34460;DHT22;20704;51.260;22.558;2022-08-01T07:46:07;19.70;99.90
34460;DHT22;20704;51.260;22.558;2022-08-01T07:48:33;19.90;99.90
34460;DHT22;20704;51.260;22.558;2022-08-01T07:50:59;20.10;99.90
34460;DHT22;20704;51.260;22.558;2022-08-01T07:53:25;20.40;99.90
34460;DHT22;20704;51.260;22.558;2022-08-01T07:55:52;20.60;99.90
34460;DHT22;20704;51.260;22.558;2022-08-01T07:58:17;20.90;99.90
34460;DHT22;20704;51.260;22.558;2022-08-01T08:00:44;21.20;99.90
34460;DHT22;20704;51.260;22.558;2022-08-01T08:03:10;21.50;99.90
34460;DHT22;20704;51.260;22.558;2022-08-01T08:05:36;21.70;99.90
34460;DHT22;20704;51.260;22.558;2022-08-01T08:08:05;22.00;99.90
34460;DHT22;20704;51.260;22.558;2022-08-01T08:10:32;22.50;99.90
34460;DHT22;20704;51.260;22.558;2022-08-01T08:12:58;23.40;99.90
34460;DHT22;20704;51.260;22.558;2022-08-01T08:15:24;24.10;99.90
34460;DHT22;20704;51.260;22.558;2022-08-01T08:17:50;24.30;99.90
34460;DHT22;20704;51.260;22.558;2022-08-01T08:20:16;24.40;99.90
34460;DHT22;20704;51.260;22.558;2022-08-01T08:22:42;25.00;99.90
34460;DHT22;20704;51.260;22.558;2022-08-01T08:25:08;25.60;99.90
34460;DHT22;20704;51.260;22.558;2022-08-01T08:27:35;26.00;99.90
34460;DHT22;20704;51.260;22.558;2022-08-01T08:30:03;26.50;99.90
34460;DHT22;20704;51.260;22.558;2022-08-01T08:32:33;27.10;99.90
34460;DHT22;20704;51.260;22.558;2022-08-01T08:35:00;27.60;99.90
34460;DHT22;20704;51.260;22.558;2022-08-01T08:37:26;28.20;99.90
34460;DHT22;20704;51.260;22.558;2022-08-01T08:39:51;28.70;99.90
34460;DHT22;20704;51.260;22.558;2022-08-01T08:42:18;29.00;99.90
34460;DHT22;20704;51.260;22.558;2022-08-01T08:44:44;28.80;99.90
34460;DHT22;20704;51.260;22.558;2022-08-01T08:47:12;28.80;99.90
34460;DHT22;20704;51.260;22.558;2022-08-01T08:49:39;28.40;99.90
34460;DHT22;20704;51.260;22.558;2022-08-01T08:52:07;28.30;99.90
34460;DHT22;20704;51.260;22.558;2022-08-01T08:54:37;27.70;99.90
34460;DHT22;20704;51.260;22.558;2022-08-01T08:57:03;27.50;99.90
34460;DHT22;20704;51.260;22.558;2022-08-01T08:59:29;27.60;99.90
34460;DHT22;20704;51.260;22.558;2022-08-01T09:01:56;27.50;99.90
34460;DHT22;20704;51.260;22.558;2022-08-01T09:04:23;27.20;99.90
34460;DHT22;20704;51.260;22.558;2022-08-01T09:06:50;27.40;99.90
34460;DHT22;20704;51.260;22.558;2022-08-01T09:09:17;27.70;99.90
34460;DHT22;20704;51.260;22.558;2022-08-01T09:11:43;28.00;99.90
34460;DHT22;20704;51.260;22.558;2022-08-01T09:14:15;28.30;99.90
34460;DHT22;20704;51.260;22.558;2022-08-01T09:17:02;28.30;99.90
34460;DHT22;20704;51.260;22.558;2022-08-01T09:19:37;28.60;99.90
34460;DHT22;20704;51.260;22.558;2022-08-01T09:22:06;28.90;99.90
34460;DHT22;20704;51.260;22.558;2022-08-01T09:24:33;29.00;99.90
34460;DHT22;20704;51.260;22.558;2022-08-01T09:27:00;28.90;99.90
34460;DHT22;20704;51.260;22.558;2022-08-01T09:29:29;29.10;99.90
34460;DHT22;20704;51.260;22.558;2022-08-01T09:31:56;28.80;99.90
34460;DHT22;20704;51.260;22.558;2022-08-01T09:34:26;28.80;99.90
34460;DHT22;20704;51.260;22.558;2022-08-01T09:36:55;28.80;99.90
34460;DHT22;20704;51.260;22.558;2022-08-01T09:39:25;28.60;99.80
34460;DHT22;20704;51.260;22.558;2022-08-01T09:41:52;28.50;99.80
34460;DHT22;20704;51.260;22.558;2022-08-01T09:44:18;28.70;99.80
34460;DHT22;20704;51.260;22.558;2022-08-01T09:47:04;29.00;99.60
34460;DHT22;20704;51.260;22.558;2022-08-01T09:49:32;28.90;98.40
34460;DHT22;20704;51.260;22.558;2022-08-01T09:52:19;29.10;98.90
34460;DHT22;20704;51.260;22.558;2022-08-01T09:55:00;29.10;98.60
34460;DHT22;20704;51.260;22.558;2022-08-01T09:57:27;29.30;98.10
34460;DHT22;20704;51.260;22.558;2022-08-01T09:59:56;29.50;98.40
34460;DHT22;20704;51.260;22.558;2022-08-01T10:02:39;29.60;97.80
34460;DHT22;20704;51.260;22.558;2022-08-01T10:05:07;29.50;96.90
34460;DHT22;20704;51.260;22.558;2022-08-01T10:07:37;29.50;96.60
34460;DHT22;20704;51.260;22.558;2022-08-01T10:10:20;29.20;97.10
34460;DHT22;20704;51.260;22.558;2022-08-01T10:12:47;29.40;97.50
34460;DHT22;20704;51.260;22.558;2022-08-01T10:15:17;29.20;97.40
34460;DHT22;20704;51.260;22.558;2022-08-01T10:17:55;29.30;97.70
34460;DHT22;20704;51.260;22.558;2022-08-01T10:20:24;29.60;97.00
34460;DHT22;20704;51.260;22.558;2022-08-01T10:22:54;29.80;95.80
34460;DHT22;20704;51.260;22.558;2022-08-01T10:25:21;29.50;95.70
34460;DHT22;20704;51.260;22.558;2022-08-01T10:27:52;29.50;94.90
34460;DHT22;20704;51.260;22.558;2022-08-01T10:30:21;29.50;95.20
34460;DHT22;20704;51.260;22.558;2022-08-01T10:32:48;29.50;95.00
34460;DHT22;20704;51.260;22.558;2022-08-01T10:35:14;29.50;95.20
34460;DHT22;20704;51.260;22.558;2022-08-01T10:37:45;29.60;94.90
34460;DHT22;20704;51.260;22.558;2022-08-01T10:40:13;29.50;94.40
34460;DHT22;20704;51.260;22.558;2022-08-01T10:42:42;29.40;94.10
34460;DHT22;20704;51.260;22.558;2022-08-01T10:45:09;28.90;93.70
34460;DHT22;20704;51.260;22.558;2022-08-01T10:50:27;28.50;94.00
34460;DHT22;20704;51.260;22.558;2022-08-01T10:53:26;28.70;94.00
34460;DHT22;20704;51.260;22.558;2022-08-01T10:58:27;28.60;93.70
34460;DHT22;20704;51.260;22.558;2022-08-01T11:01:27;28.40;93.60
34460;DHT22;20704;51.260;22.558;2022-08-01T11:17:41;28.40;93.40
34460;DHT22;20704;51.260;22.558;2022-08-01T11:20:18;28.40;94.00
34460;DHT22;20704;51.260;22.558;2022-08-01T11:30:44;28.10;93.20
34460;DHT22;20704;51.260;22.558;2022-08-01T11:33:11;28.10;93.20
34460;DHT22;20704;51.260;22.558;2022-08-01T11:35:44;28.20;92.80
34460;DHT22;20704;51.260;22.558;2022-08-01T11:38:28;28.10;92.70
34460;DHT22;20704;51.260;22.558;2022-08-01T11:41:22;28.20;92.50
34460;DHT22;20704;51.260;22.558;2022-08-01T11:44:09;27.70;89.30
34460;DHT22;20704;51.260;22.558;2022-08-01T11:46:56;27.90;91.00
34460;DHT22;20704;51.260;22.558;2022-08-01T11:52:10;27.90;92.50
34460;DHT22;20704;51.260;22.558;2022-08-01T11:54:42;27.90;93.00
34460;DHT22;20704;51.260;22.558;2022-08-01T11:57:14;27.70;92.00
34460;DHT22;20704;51.260;22.558;2022-08-01T11:59:45;27.40;91.10
34460;DHT22;20704;51.260;22.558;2022-08-01T12:02:24;27.50;91.90
34460;DHT22;20704;51.260;22.558;2022-08-01T12:05:01;27.40;92.00
34460;DHT22;20704;51.260;22.558;2022-08-01T12:07:29;27.40;92.40
34460;DHT22;20704;51.260;22.558;2022-08-01T12:10:13;27.40;92.30
34460;DHT22;20704;51.260;22.558;2022-08-01T12:12:53;27.20;91.90
34460;DHT22;20704;51.260;22.558;2022-08-01T12:15:21;27.30;91.80
34460;DHT22;20704;51.260;22.558;2022-08-01T12:17:56;27.20;91.80
34460;DHT22;20704;51.260;22.558;2022-08-01T12:20:23;27.20;91.70
34460;DHT22;20704;51.260;22.558;2022-08-01T12:22:54;27.00;91.90
34460;DHT22;20704;51.260;22.558;2022-08-01T12:25:20;27.00;91.50
34460;DHT22;20704;51.260;22.558;2022-08-01T12:27:47;26.90;91.70
34460;DHT22;20704;51.260;22.558;2022-08-01T12:30:16;27.00;92.00
34460;DHT22;20704;51.260;22.558;2022-08-01T12:32:45;26.80;91.20
34460;DHT22;20704;51.260;22.558;2022-08-01T12:35:22;26.60;90.90
34460;DHT22;20704;51.260;22.558;2022-08-01T12:37:54;26.70;90.70
34460;DHT22;20704;51.260;22.558;2022-08-01T12:40:25;26.60;89.10
34460;DHT22;20704;51.260;22.558;2022-08-01T12:42:54;26.50;87.20
34460;DHT22;20704;51.260;22.558;2022-08-01T12:48:00;26.60;86.70
34460;DHT22;20704;51.260;22.558;2022-08-01T12:50:29;26.50;87.00
34460;DHT22;20704;51.260;22.558;2022-08-01T12:52:57;26.60;86.90
34460;DHT22;20704;51.260;22.558;2022-08-01T12:55:25;26.50;87.30
34460;DHT22;20704;51.260;22.558;2022-08-01T13:00:30;26.40;87.30
34460;DHT22;20704;51.260;22.558;2022-08-01T13:03:03;26.40;87.40
34460;DHT22;20704;51.260;22.558;2022-08-01T13:05:48;26.50;86.90
34460;DHT22;20704;51.260;22.558;2022-08-01T13:08:23;26.60;85.90
34460;DHT22;20704;51.260;22.558;2022-08-01T13:10:55;26.50;86.80
34460;DHT22;20704;51.260;22.558;2022-08-01T13:13:37;26.60;87.70
34460;DHT22;20704;51.260;22.558;2022-08-01T13:16:05;26.60;87.60
34460;DHT22;20704;51.260;22.558;2022-08-01T13:18:32;26.50;86.70
34460;DHT22;20704;51.260;22.558;2022-08-01T13:21:16;26.40;85.30
34460;DHT22;20704;51.260;22.558;2022-08-01T13:24:10;26.30;85.30
34460;DHT22;20704;51.260;22.558;2022-08-01T13:26:50;26.20;84.50
34460;DHT22;20704;51.260;22.558;2022-08-01T13:29:23;26.20;85.80
34460;DHT22;20704;51.260;22.558;2022-08-01T13:31:54;26.10;86.50
34460;DHT22;20704;51.260;22.558;2022-08-01T13:34:33;26.10;87.60
34460;DHT22;20704;51.260;22.558;2022-08-01T13:37:00;26.20;88.50
34460;DHT22;20704;51.260;22.558;2022-08-01T13:39:30;26.10;88.70
34460;DHT22;20704;51.260;22.558;2022-08-01T13:42:14;26.20;89.50
34460;DHT22;20704;51.260;22.558;2022-08-01T13:44:43;26.20;89.40
34460;DHT22;20704;51.260;22.558;2022-08-01T13:47:12;26.20;89.40
34460;DHT22;20704;51.260;22.558;2022-08-01T13:49:38;26.10;89.60
34460;DHT22;20704;51.260;22.558;2022-08-01T13:52:04;26.20;89.10
34460;DHT22;20704;51.260;22.558;2022-08-01T13:54:33;26.20;87.90
34460;DHT22;20704;51.260;22.558;2022-08-01T13:56:59;26.30;88.00
34460;DHT22;20704;51.260;22.558;2022-08-01T13:59:25;26.20;88.20
34460;DHT22;20704;51.260;22.558;2022-08-01T14:01:52;26.20;88.00
34460;DHT22;20704;51.260;22.558;2022-08-01T14:04:17;26.10;87.60
34460;DHT22;20704;51.260;22.558;2022-08-01T14:06:44;26.00;87.90
34460;DHT22;20704;51.260;22.558;2022-08-01T14:09:10;26.10;88.30
34460;DHT22;20704;51.260;22.558;2022-08-01T14:11:36;26.00;87.80
34460;DHT22;20704;51.260;22.558;2022-08-01T14:14:02;25.90;86.40
34460;DHT22;20704;51.260;22.558;2022-08-01T14:16:29;26.00;87.30
34460;DHT22;20704;51.260;22.558;2022-08-01T14:18:55;26.10;86.20
34460;DHT22;20704;51.260;22.558;2022-08-01T14:21:21;26.00;85.70
34460;DHT22;20704;51.260;22.558;2022-08-01T14:23:47;26.00;86.10
34460;DHT22;20704;51.260;22.558;2022-08-01T14:26:13;26.10;84.90
34460;DHT22;20704;51.260;22.558;2022-08-01T14:28:39;25.90;84.00
34460;DHT22;20704;51.260;22.558;2022-08-01T14:31:05;25.90;84.10
34460;DHT22;20704;51.260;22.558;2022-08-01T14:33:34;25.90;84.00
34460;DHT22;20704;51.260;22.558;2022-08-01T14:36:00;25.80;84.30
34460;DHT22;20704;51.260;22.558;2022-08-01T14:38:26;25.90;85.00
34460;DHT22;20704;51.260;22.558;2022-08-01T14:40:52;25.80;84.70
34460;DHT22;20704;51.260;22.558;2022-08-01T14:43:19;25.80;85.00
34460;DHT22;20704;51.260;22.558;2022-08-01T14:45:46;25.80;85.60
34460;DHT22;20704;51.260;22.558;2022-08-01T14:48:17;25.70;85.20
34460;DHT22;20704;51.260;22.558;2022-08-01T14:50:43;25.70;85.10
34460;DHT22;20704;51.260;22.558;2022-08-01T14:53:09;25.70;84.90
34460;DHT22;20704;51.260;22.558;2022-08-01T14:55:35;25.60;85.60
34460;DHT22;20704;51.260;22.558;2022-08-01T14:58:01;25.60;86.20
34460;DHT22;20704;51.260;22.558;2022-08-01T15:00:27;25.60;86.70
34460;DHT22;20704;51.260;22.558;2022-08-01T15:02:53;25.50;87.20
34460;DHT22;20704;51.260;22.558;2022-08-01T15:05:19;25.50;87.50
34460;DHT22;20704;51.260;22.558;2022-08-01T15:07:45;25.60;88.40
34460;DHT22;20704;51.260;22.558;2022-08-01T15:10:11;25.60;88.70
34460;DHT22;20704;51.260;22.558;2022-08-01T15:12:37;25.50;88.90
34460;DHT22;20704;51.260;22.558;2022-08-01T15:15:04;25.50;89.70
34460;DHT22;20704;51.260;22.558;2022-08-01T15:17:31;25.50;90.20
34460;DHT22;20704;51.260;22.558;2022-08-01T15:20:03;25.50;90.40
34460;DHT22;20704;51.260;22.558;2022-08-01T15:22:30;25.40;90.80
34460;DHT22;20704;51.260;22.558;2022-08-01T15:24:58;25.40;91.10
34460;DHT22;20704;51.260;22.558;2022-08-01T15:27:25;25.30;91.50
34460;DHT22;20704;51.260;22.558;2022-08-01T15:29:52;25.30;91.50
34460;DHT22;20704;51.260;22.558;2022-08-01T15:32:18;25.30;91.70
34460;DHT22;20704;51.260;22.558;2022-08-01T15:34:44;25.30;91.80
34460;DHT22;20704;51.260;22.558;2022-08-01T15:37:11;25.30;91.80
34460;DHT22;20704;51.260;22.558;2022-08-01T15:39:37;25.20;91.80
34460;DHT22;20704;51.260;22.558;2022-08-01T15:42:06;25.20;92.00
34460;DHT22;20704;51.260;22.558;2022-08-01T15:44:33;24.50;91.70
34460;DHT22;20704;51.260;22.558;2022-08-01T15:47:00;25.00;92.20
34460;DHT22;20704;51.260;22.558;2022-08-01T15:49:26;24.90;92.40
34460;DHT22;20704;51.260;22.558;2022-08-01T15:51:52;24.90;92.50
34460;DHT22;20704;51.260;22.558;2022-08-01T15:54:19;24.90;92.70
34460;DHT22;20704;51.260;22.558;2022-08-01T15:56:45;24.80;93.60
34460;DHT22;20704;51.260;22.558;2022-08-01T15:59:12;24.70;93.90
34460;DHT22;20704;51.260;22.558;2022-08-01T16:01:38;24.70;94.30
34460;DHT22;20704;51.260;22.558;2022-08-01T16:04:04;24.60;94.30
34460;DHT22;20704;51.260;22.558;2022-08-01T16:06:31;24.50;94.50
34460;DHT22;20704;51.260;22.558;2022-08-01T16:08:57;24.30;94.80
34460;DHT22;20704;51.260;22.558;2022-08-01T16:11:23;24.30;95.00
34460;DHT22;20704;51.260;22.558;2022-08-01T16:13:52;24.30;95.20
34460;DHT22;20704;51.260;22.558;2022-08-01T16:16:19;24.10;95.40